sensor_id;sensor_type;location;lat;lon;timestamp;P1;durP1;ratioP1;P2;durP2;ratioP2
40815;SDS011;26535;48.788;9.214;2022-09-28T05:03:25;1.38;;;0.30;;
40815;SDS011;26535;48.788;9.214;2022-09-28T05:06:34;3.60;;;0.50;;
40815;SDS011;26535;48.788;9.214;2022-09-28T05:09:03;1.83;;;0.47;;
40815;SDS011;26535;48.788;9.214;2022-09-28T05:11:29;1.23;;;0.30;;
40815;SDS011;26535;48.788;9.214;2022-09-28T05:14:20;2.78;;;0.70;;
40815;SDS011;26535;48.788;9.214;2022-09-28T05:16:53;1.75;;;0.63;;
40815;SDS011;26535;48.788;9.214;2022-09-28T05:19:24;3.65;;;0.80;;
40815;SDS011;26535;48.788;9.214;2022-09-28T05:21:54;4.22;;;2.10;;
40815;SDS011;26535;48.788;9.214;2022-09-28T05:24:40;2.72;;;1.02;;
40815;SDS011;26535;48.788;9.214;2022-09-28T06:12:03;2.63;;;0.60;;
40815;SDS011;26535;48.788;9.214;2022-09-28T06:20:19;2.30;;;0.50;;
40815;SDS011;26535;48.788;9.214;2022-09-28T06:24:10;1.73;;;0.50;;
40815;SDS011;26535;48.788;9.214;2022-09-28T06:26:39;2.58;;;0.70;;
40815;SDS011;26535;48.788;9.214;2022-09-28T06:29:11;2.70;;;0.70;;
40815;SDS011;26535;48.788;9.214;2022-09-28T06:31:45;3.05;;;0.75;;
40815;SDS011;26535;48.788;9.214;2022-09-28T06:34:13;4.93;;;1.10;;
40815;SDS011;26535;48.788;9.214;2022-09-28T06:36:39;4.47;;;0.98;;
40815;SDS011;26535;48.788;9.214;2022-09-28T06:39:14;3.45;;;0.90;;
40815;SDS011;26535;48.788;9.214;2022-09-28T06:42:11;2.35;;;0.82;;
40815;SDS011;26535;48.788;9.214;2022-09-28T06:44:55;2.30;;;0.93;;
40815;SDS011;26535;48.788;9.214;2022-09-28T06:48:06;5.93;;;1.40;;
40815;SDS011;26535;48.788;9.214;2022-09-28T06:50:43;3.15;;;1.00;;
40815;SDS011;26535;48.788;9.214;2022-09-28T06:53:31;3.42;;;1.42;;
40815;SDS011;26535;48.788;9.214;2022-09-28T06:56:26;5.80;;;1.13;;
40815;SDS011;26535;48.788;9.214;2022-09-28T06:58:55;2.92;;;0.90;;
40815;SDS011;26535;48.788;9.214;2022-09-28T07:01:46;2.67;;;0.80;;
40815;SDS011;26535;48.788;9.214;2022-09-28T07:04:31;4.10;;;1.10;;
40815;SDS011;26535;48.788;9.214;2022-09-28T07:07:26;4.03;;;1.00;;
40815;SDS011;26535;48.788;9.214;2022-09-28T07:10:16;3.67;;;1.00;;
40815;SDS011;26535;48.788;9.214;2022-09-28T07:13:05;5.75;;;1.40;;
40815;SDS011;26535;48.788;9.214;2022-09-28T07:16:32;3.03;;;0.95;;
40815;SDS011;26535;48.788;9.214;2022-09-28T07:22:54;3.50;;;1.00;;
40815;SDS011;26535;48.788;9.214;2022-09-28T07:26:32;2.83;;;1.00;;
40815;SDS011;26535;48.788;9.214;2022-09-28T07:34:34;4.13;;;1.00;;
40815;SDS011;26535;48.788;9.214;2022-09-28T07:38:19;3.80;;;1.27;;
40815;SDS011;26535;48.788;9.214;2022-09-28T07:43:52;3.00;;;0.95;;
40815;SDS011;26535;48.788;9.214;2022-09-28T07:46:23;3.38;;;1.05;;
40815;SDS011;26535;48.788;9.214;2022-09-28T07:49:01;4.72;;;1.10;;
40815;SDS011;26535;48.788;9.214;2022-09-28T07:51:33;5.53;;;1.10;;
40815;SDS011;26535;48.788;9.214;2022-09-28T07:54:29;5.22;;;1.23;;
40815;SDS011;26535;48.788;9.214;2022-09-28T07:57:45;3.83;;;1.00;;
40815;SDS011;26535;48.788;9.214;2022-09-28T08:00:37;3.60;;;1.10;;
40815;SDS011;26535;48.788;9.214;2022-09-28T08:03:09;5.75;;;1.25;;
40815;SDS011;26535;48.788;9.214;2022-09-28T08:06:06;3.92;;;1.08;;
40815;SDS011;26535;48.788;9.214;2022-09-28T08:08:37;4.43;;;1.15;;
40815;SDS011;26535;48.788;9.214;2022-09-28T08:11:21;3.55;;;0.95;;
40815;SDS011;26535;48.788;9.214;2022-09-28T08:14:06;3.75;;;1.17;;
40815;SDS011;26535;48.788;9.214;2022-09-28T08:19:55;3.97;;;0.90;;
40815;SDS011;26535;48.788;9.214;2022-09-28T08:23:06;4.05;;;1.27;;
40815;SDS011;26535;48.788;9.214;2022-09-28T08:25:37;5.15;;;1.38;;
40815;SDS011;26535;48.788;9.214;2022-09-28T08:28:11;4.20;;;1.30;;
40815;SDS011;26535;48.788;9.214;2022-09-28T08:30:49;3.17;;;1.10;;
40815;SDS011;26535;48.788;9.214;2022-09-28T08:33:24;2.90;;;1.02;;
40815;SDS011;26535;48.788;9.214;2022-09-28T08:36:14;2.75;;;1.00;;
40815;SDS011;26535;48.788;9.214;2022-09-28T08:39:06;4.05;;;1.00;;
40815;SDS011;26535;48.788;9.214;2022-09-28T08:45:34;4.18;;;0.98;;
40815;SDS011;26535;48.788;9.214;2022-09-28T08:48:31;3.45;;;1.00;;
40815;SDS011;26535;48.788;9.214;2022-09-28T09:00:58;3.60;;;0.70;;
40815;SDS011;26535;48.788;9.214;2022-09-28T09:03:43;4.82;;;1.25;;
40815;SDS011;26535;48.788;9.214;2022-09-28T09:09:55;5.93;;;1.10;;
40815;SDS011;26535;48.788;9.214;2022-09-28T09:18:48;2.60;;;0.95;;
40815;SDS011;26535;48.788;9.214;2022-09-28T09:28:01;2.67;;;0.90;;
40815;SDS011;26535;48.788;9.214;2022-09-28T09:50:23;6.68;;;1.42;;
40815;SDS011;26535;48.788;9.214;2022-09-28T09:53:43;4.28;;;1.30;;
40815;SDS011;26535;48.788;9.214;2022-09-28T09:56:20;3.00;;;0.95;;
40815;SDS011;26535;48.788;9.214;2022-09-28T09:59:36;5.88;;;1.00;;
40815;SDS011;26535;48.788;9.214;2022-09-28T10:02:47;3.53;;;1.25;;
40815;SDS011;26535;48.788;9.214;2022-09-28T10:09:03;3.22;;;1.00;;
40815;SDS011;26535;48.788;9.214;2022-09-28T10:14:46;5.20;;;1.15;;
40815;SDS011;26535;48.788;9.214;2022-09-28T10:17:25;3.17;;;1.20;;
40815;SDS011;26535;48.788;9.214;2022-09-28T10:20:14;2.90;;;0.90;;
40815;SDS011;26535;48.788;9.214;2022-09-28T10:23:10;5.20;;;1.25;;
40815;SDS011;26535;48.788;9.214;2022-09-28T10:25:43;4.70;;;1.20;;
40815;SDS011;26535;48.788;9.214;2022-09-28T10:28:30;5.63;;;1.15;;
40815;SDS011;26535;48.788;9.214;2022-09-28T10:34:33;4.18;;;0.90;;
40815;SDS011;26535;48.788;9.214;2022-09-28T10:37:25;3.75;;;1.25;;
40815;SDS011;26535;48.788;9.214;2022-09-28T10:40:32;2.83;;;1.08;;
40815;SDS011;26535;48.788;9.214;2022-09-28T10:43:21;4.18;;;1.00;;
40815;SDS011;26535;48.788;9.214;2022-09-28T10:46:13;2.92;;;0.75;;
40815;SDS011;26535;48.788;9.214;2022-09-28T10:48:51;3.30;;;0.90;;
40815;SDS011;26535;48.788;9.214;2022-09-28T10:51:40;4.13;;;0.85;;
40815;SDS011;26535;48.788;9.214;2022-09-28T10:54:27;4.72;;;1.42;;
40815;SDS011;26535;48.788;9.214;2022-09-28T10:57:01;4.45;;;1.33;;
40815;SDS011;26535;48.788;9.214;2022-09-28T10:59:57;5.07;;;1.00;;
40815;SDS011;26535;48.788;9.214;2022-09-28T11:02:31;5.18;;;1.00;;
40815;SDS011;26535;48.788;9.214;2022-09-28T11:05:04;5.00;;;1.10;;
40815;SDS011;26535;48.788;9.214;2022-09-28T11:07:45;3.72;;;0.90;;
40815;SDS011;26535;48.788;9.214;2022-09-28T11:10:23;2.70;;;0.70;;
40815;SDS011;26535;48.788;9.214;2022-09-28T11:12:54;3.90;;;1.10;;
40815;SDS011;26535;48.788;9.214;2022-09-28T11:15:27;4.13;;;0.90;;
40815;SDS011;26535;48.788;9.214;2022-09-28T11:18:01;2.80;;;0.75;;
40815;SDS011;26535;48.788;9.214;2022-09-28T11:20:47;5.00;;;1.10;;
40815;SDS011;26535;48.788;9.214;2022-09-28T11:23:27;2.87;;;0.90;;
40815;SDS011;26535;48.788;9.214;2022-09-28T11:26:13;5.15;;;0.95;;
40815;SDS011;26535;48.788;9.214;2022-09-28T11:28:38;3.03;;;0.75;;
40815;SDS011;26535;48.788;9.214;2022-09-28T11:31:28;4.05;;;0.90;;
40815;SDS011;26535;48.788;9.214;2022-09-28T11:34:22;3.40;;;0.90;;
40815;SDS011;26535;48.788;9.214;2022-09-28T11:37:06;4.50;;;1.10;;
40815;SDS011;26535;48.788;9.214;2022-09-28T11:52:07;3.50;;;0.85;;
40815;SDS011;26535;48.788;9.214;2022-09-28T11:54:45;2.08;;;0.70;;
40815;SDS011;26535;48.788;9.214;2022-09-28T11:57:27;2.90;;;0.60;;
40815;SDS011;26535;48.788;9.214;2022-09-28T12:00:04;2.40;;;0.63;;
40815;SDS011;26535;48.788;9.214;2022-09-28T12:05:58;2.53;;;0.60;;
40815;SDS011;26535;48.788;9.214;2022-09-28T12:08:40;3.55;;;0.90;;
40815;SDS011;26535;48.788;9.214;2022-09-28T12:11:58;2.45;;;0.70;;
40815;SDS011;26535;48.788;9.214;2022-09-28T12:14:46;3.03;;;0.70;;
40815;SDS011;26535;48.788;9.214;2022-09-28T12:17:28;2.60;;;0.50;;
40815;SDS011;26535;48.788;9.214;2022-09-28T12:20:17;3.25;;;0.60;;
40815;SDS011;26535;48.788;9.214;2022-09-28T12:26:34;3.17;;;0.60;;
40815;SDS011;26535;48.788;9.214;2022-09-28T12:30:02;3.88;;;0.63;;
40815;SDS011;26535;48.788;9.214;2022-09-28T12:33:04;2.92;;;0.65;;
40815;SDS011;26535;48.788;9.214;2022-09-28T12:41:04;4.43;;;0.75;;
40815;SDS011;26535;48.788;9.214;2022-09-28T12:47:03;3.30;;;0.63;;
40815;SDS011;26535;48.788;9.214;2022-09-28T12:54:32;2.65;;;0.50;;
40815;SDS011;26535;48.788;9.214;2022-09-28T12:56:26;3.42;;;0.70;;
40815;SDS011;26535;48.788;9.214;2022-09-28T13:04:44;2.80;;;0.80;;
40815;SDS011;26535;48.788;9.214;2022-09-28T13:08:06;2.45;;;0.50;;
40815;SDS011;26535;48.788;9.214;2022-09-28T13:10:28;2.90;;;0.68;;
40815;SDS011;26535;48.788;9.214;2022-09-28T13:13:12;2.58;;;0.60;;
40815;SDS011;26535;48.788;9.214;2022-09-28T13:16:17;1.45;;;0.30;;
40815;SDS011;26535;48.788;9.214;2022-09-28T13:19:23;1.50;;;0.60;;
40815;SDS011;26535;48.788;9.214;2022-09-28T13:24:26;1.83;;;0.43;;
40815;SDS011;26535;48.788;9.214;2022-09-28T13:26:58;3.10;;;0.60;;
40815;SDS011;26535;48.788;9.214;2022-09-28T13:29:31;2.90;;;0.40;;
40815;SDS011;26535;48.788;9.214;2022-09-28T13:31:59;3.08;;;0.60;;
40815;SDS011;26535;48.788;9.214;2022-09-28T13:34:28;2.20;;;0.50;;
40815;SDS011;26535;48.788;9.214;2022-09-28T13:37:18;2.70;;;0.55;;
40815;SDS011;26535;48.788;9.214;2022-09-28T13:53:14;4.53;;;0.52;;
40815;SDS011;26535;48.788;9.214;2022-09-28T13:58:43;1.90;;;0.50;;
40815;SDS011;26535;48.788;9.214;2022-09-28T14:01:25;3.03;;;0.52;;
40815;SDS011;26535;48.788;9.214;2022-09-28T14:06:40;1.85;;;0.43;;
40815;SDS011;26535;48.788;9.214;2022-09-28T14:11:43;3.58;;;0.60;;
40815;SDS011;26535;48.788;9.214;2022-09-28T14:14:43;2.88;;;0.60;;
40815;SDS011;26535;48.788;9.214;2022-09-28T14:19:51;3.55;;;0.70;;
40815;SDS011;26535;48.788;9.214;2022-09-28T14:22:28;2.03;;;0.60;;
40815;SDS011;26535;48.788;9.214;2022-09-28T14:25:09;2.10;;;0.55;;
40815;SDS011;26535;48.788;9.214;2022-09-28T14:32:39;3.03;;;0.70;;
40815;SDS011;26535;48.788;9.214;2022-09-28T14:38:12;3.30;;;0.77;;
40815;SDS011;26535;48.788;9.214;2022-09-28T14:41:04;2.03;;;0.55;;
40815;SDS011;26535;48.788;9.214;2022-09-28T14:48:53;2.45;;;0.70;;
40815;SDS011;26535;48.788;9.214;2022-09-28T14:56:40;3.50;;;0.57;;
40815;SDS011;26535;48.788;9.214;2022-09-28T14:59:16;2.05;;;0.50;;
40815;SDS011;26535;48.788;9.214;2022-09-28T15:01:49;1.75;;;0.50;;
40815;SDS011;26535;48.788;9.214;2022-09-28T15:04:26;2.58;;;0.70;;
40815;SDS011;26535;48.788;9.214;2022-09-28T15:06:53;1.70;;;0.60;;
40815;SDS011;26535;48.788;9.214;2022-09-28T15:09:25;3.60;;;0.65;;
40815;SDS011;26535;48.788;9.214;2022-09-28T15:12:05;2.60;;;0.52;;
40815;SDS011;26535;48.788;9.214;2022-09-28T15:17:38;3.08;;;0.60;;
40815;SDS011;26535;48.788;9.214;2022-09-28T15:22:59;4.18;;;0.47;;
40815;SDS011;26535;48.788;9.214;2022-09-28T15:25:26;3.15;;;0.70;;
40815;SDS011;26535;48.788;9.214;2022-09-28T15:28:01;4.63;;;0.70;;
40815;SDS011;26535;48.788;9.214;2022-09-28T15:30:46;1.45;;;0.30;;
40815;SDS011;26535;48.788;9.214;2022-09-28T15:33:28;2.00;;;0.45;;
40815;SDS011;26535;48.788;9.214;2022-09-28T15:36:36;1.90;;;0.70;;
40815;SDS011;26535;48.788;9.214;2022-09-28T15:41:29;3.72;;;0.55;;
40815;SDS011;26535;48.788;9.214;2022-09-28T15:46:36;2.95;;;0.68;;
40815;SDS011;26535;48.788;9.214;2022-09-28T15:49:04;2.20;;;0.43;;
40815;SDS011;26535;48.788;9.214;2022-09-28T15:51:43;2.10;;;0.60;;
40815;SDS011;26535;48.788;9.214;2022-09-28T15:54:13;1.95;;;0.50;;
40815;SDS011;26535;48.788;9.214;2022-09-28T15:56:53;2.03;;;0.60;;
40815;SDS011;26535;48.788;9.214;2022-09-28T16:02:14;2.65;;;0.60;;
40815;SDS011;26535;48.788;9.214;2022-09-28T16:04:48;2.13;;;0.55;;
40815;SDS011;26535;48.788;9.214;2022-09-28T16:07:34;2.13;;;0.40;;
40815;SDS011;26535;48.788;9.214;2022-09-28T16:12:41;1.92;;;0.75;;
40815;SDS011;26535;48.788;9.214;2022-09-28T16:17:38;1.58;;;0.65;;
40815;SDS011;26535;48.788;9.214;2022-09-28T16:20:39;2.22;;;0.60;;
40815;SDS011;26535;48.788;9.214;2022-09-28T16:36:22;3.72;;;0.70;;
40815;SDS011;26535;48.788;9.214;2022-09-28T16:38:51;1.58;;;0.68;;
40815;SDS011;26535;48.788;9.214;2022-09-28T16:41:23;2.95;;;0.73;;
40815;SDS011;26535;48.788;9.214;2022-09-28T16:43:57;2.53;;;0.75;;
40815;SDS011;26535;48.788;9.214;2022-09-28T16:46:34;3.03;;;0.85;;
40815;SDS011;26535;48.788;9.214;2022-09-28T16:51:33;3.22;;;0.85;;
40815;SDS011;26535;48.788;9.214;2022-09-28T16:53:59;3.22;;;0.80;;
40815;SDS011;26535;48.788;9.214;2022-09-28T16:56:59;2.85;;;0.70;;
40815;SDS011;26535;48.788;9.214;2022-09-28T16:59:29;4.93;;;0.80;;
40815;SDS011;26535;48.788;9.214;2022-09-28T17:02:17;3.28;;;0.82;;
40815;SDS011;26535;48.788;9.214;2022-09-28T17:04:47;5.38;;;1.33;;
40815;SDS011;26535;48.788;9.214;2022-09-28T17:07:42;4.97;;;1.00;;
40815;SDS011;26535;48.788;9.214;2022-09-28T17:10:16;3.55;;;1.10;;
40815;SDS011;26535;48.788;9.214;2022-09-28T17:12:50;4.85;;;1.50;;
40815;SDS011;26535;48.788;9.214;2022-09-28T17:15:19;4.00;;;1.70;;
40815;SDS011;26535;48.788;9.214;2022-09-28T17:17:45;5.28;;;2.80;;
40815;SDS011;26535;48.788;9.214;2022-09-28T17:20:14;4.30;;;2.30;;
40815;SDS011;26535;48.788;9.214;2022-09-28T17:22:44;6.35;;;2.25;;
40815;SDS011;26535;48.788;9.214;2022-09-28T17:25:10;6.70;;;2.05;;
40815;SDS011;26535;48.788;9.214;2022-09-28T17:27:37;3.92;;;1.67;;
40815;SDS011;26535;48.788;9.214;2022-09-28T17:30:07;6.05;;;2.88;;
40815;SDS011;26535;48.788;9.214;2022-09-28T17:32:35;6.20;;;2.90;;
40815;SDS011;26535;48.788;9.214;2022-09-28T17:35:02;4.75;;;1.92;;
40815;SDS011;26535;48.788;9.214;2022-09-28T17:37:29;6.07;;;1.70;;
40815;SDS011;26535;48.788;9.214;2022-09-28T17:42:24;4.57;;;1.70;;
40815;SDS011;26535;48.788;9.214;2022-09-28T17:44:50;6.45;;;2.40;;
40815;SDS011;26535;48.788;9.214;2022-09-28T17:47:15;7.85;;;2.53;;
40815;SDS011;26535;48.788;9.214;2022-09-28T17:49:41;7.70;;;2.80;;
40815;SDS011;26535;48.788;9.214;2022-09-28T17:52:09;7.93;;;3.28;;
40815;SDS011;26535;48.788;9.214;2022-09-28T17:54:35;6.82;;;2.88;;
40815;SDS011;26535;48.788;9.214;2022-09-28T17:57:03;6.85;;;2.70;;
40815;SDS011;26535;48.788;9.214;2022-09-28T17:59:29;6.22;;;2.60;;
40815;SDS011;26535;48.788;9.214;2022-09-28T18:01:58;6.70;;;2.80;;
40815;SDS011;26535;48.788;9.214;2022-09-28T18:04:28;7.57;;;2.60;;
40815;SDS011;26535;48.788;9.214;2022-09-28T18:06:53;6.95;;;3.15;;
40815;SDS011;26535;48.788;9.214;2022-09-28T18:09:19;9.57;;;2.33;;
40815;SDS011;26535;48.788;9.214;2022-09-28T18:11:48;8.45;;;3.00;;
40815;SDS011;26535;48.788;9.214;2022-09-28T18:14:17;5.38;;;2.28;;
40815;SDS011;26535;48.788;9.214;2022-09-28T18:16:42;8.20;;;2.75;;
40815;SDS011;26535;48.788;9.214;2022-09-28T18:19:09;8.52;;;2.22;;
40815;SDS011;26535;48.788;9.214;2022-09-28T18:21:35;5.47;;;2.22;;
40815;SDS011;26535;48.788;9.214;2022-09-28T18:24:00;6.45;;;2.78;;
40815;SDS011;26535;48.788;9.214;2022-09-28T18:26:26;7.50;;;2.50;;
40815;SDS011;26535;48.788;9.214;2022-09-28T18:28:52;9.73;;;5.07;;
40815;SDS011;26535;48.788;9.214;2022-09-28T18:31:19;9.90;;;4.50;;
40815;SDS011;26535;48.788;9.214;2022-09-28T18:33:44;4.53;;;2.92;;
40815;SDS011;26535;48.788;9.214;2022-09-28T18:36:12;5.85;;;2.83;;
40815;SDS011;26535;48.788;9.214;2022-09-28T18:38:38;7.97;;;3.17;;
40815;SDS011;26535;48.788;9.214;2022-09-28T18:41:11;6.43;;;3.30;;
40815;SDS011;26535;48.788;9.214;2022-09-28T18:43:40;8.75;;;3.10;;
40815;SDS011;26535;48.788;9.214;2022-09-28T18:46:07;6.63;;;2.75;;
40815;SDS011;26535;48.788;9.214;2022-09-28T18:48:34;10.90;;;3.25;;
40815;SDS011;26535;48.788;9.214;2022-09-28T18:51:00;6.88;;;2.90;;
40815;SDS011;26535;48.788;9.214;2022-09-28T18:53:27;7.72;;;2.90;;
40815;SDS011;26535;48.788;9.214;2022-09-28T18:55:54;6.43;;;2.93;;
40815;SDS011;26535;48.788;9.214;2022-09-28T18:58:21;6.53;;;2.80;;
40815;SDS011;26535;48.788;9.214;2022-09-28T19:00:47;5.78;;;2.70;;
40815;SDS011;26535;48.788;9.214;2022-09-28T19:03:12;8.68;;;2.50;;
40815;SDS011;26535;48.788;9.214;2022-09-28T19:05:40;6.32;;;2.63;;
40815;SDS011;26535;48.788;9.214;2022-09-28T19:08:06;5.68;;;2.65;;
40815;SDS011;26535;48.788;9.214;2022-09-28T19:10:32;7.05;;;3.13;;
40815;SDS011;26535;48.788;9.214;2022-09-28T19:12:57;6.85;;;3.30;;
40815;SDS011;26535;48.788;9.214;2022-09-28T19:15:23;4.93;;;2.30;;
40815;SDS011;26535;48.788;9.214;2022-09-28T19:17:49;7.18;;;2.70;;
40815;SDS011;26535;48.788;9.214;2022-09-28T19:20:15;6.35;;;3.15;;
40815;SDS011;26535;48.788;9.214;2022-09-28T19:22:41;5.05;;;2.22;;
40815;SDS011;26535;48.788;9.214;2022-09-28T19:25:08;4.90;;;2.60;;
40815;SDS011;26535;48.788;9.214;2022-09-28T19:27:34;6.28;;;2.67;;
40815;SDS011;26535;48.788;9.214;2022-09-28T19:30:00;9.25;;;3.97;;
40815;SDS011;26535;48.788;9.214;2022-09-28T19:32:26;7.22;;;3.08;;
40815;SDS011;26535;48.788;9.214;2022-09-28T19:34:53;6.28;;;2.70;;
40815;SDS011;26535;48.788;9.214;2022-09-28T19:37:18;6.18;;;2.88;;
40815;SDS011;26535;48.788;9.214;2022-09-28T19:39:47;6.38;;;3.10;;
40815;SDS011;26535;48.788;9.214;2022-09-28T19:42:12;5.15;;;2.45;;
40815;SDS011;26535;48.788;9.214;2022-09-28T19:44:38;6.85;;;2.72;;
40815;SDS011;26535;48.788;9.214;2022-09-28T19:47:07;7.57;;;2.85;;
40815;SDS011;26535;48.788;9.214;2022-09-28T19:49:38;7.80;;;3.00;;
40815;SDS011;26535;48.788;9.214;2022-09-28T19:52:10;8.15;;;2.83;;
40815;SDS011;26535;48.788;9.214;2022-09-28T19:54:43;8.10;;;2.63;;
40815;SDS011;26535;48.788;9.214;2022-09-28T19:57:12;6.15;;;2.63;;
40815;SDS011;26535;48.788;9.214;2022-09-28T19:59:38;6.85;;;2.33;;
40815;SDS011;26535;48.788;9.214;2022-09-28T20:02:04;8.23;;;2.50;;
40815;SDS011;26535;48.788;9.214;2022-09-28T20:04:31;4.85;;;2.30;;
40815;SDS011;26535;48.788;9.214;2022-09-28T20:06:57;5.57;;;2.33;;
40815;SDS011;26535;48.788;9.214;2022-09-28T20:09:23;5.82;;;2.90;;
40815;SDS011;26535;48.788;9.214;2022-09-28T20:11:48;6.13;;;2.90;;
40815;SDS011;26535;48.788;9.214;2022-09-28T20:14:15;5.32;;;2.95;;
40815;SDS011;26535;48.788;9.214;2022-09-28T20:16:42;7.45;;;3.03;;
40815;SDS011;26535;48.788;9.214;2022-09-28T20:19:10;9.35;;;3.00;;
40815;SDS011;26535;48.788;9.214;2022-09-28T20:21:36;6.28;;;2.65;;
40815;SDS011;26535;48.788;9.214;2022-09-28T20:24:02;5.40;;;2.67;;
40815;SDS011;26535;48.788;9.214;2022-09-28T20:26:29;5.80;;;2.33;;
40815;SDS011;26535;48.788;9.214;2022-09-28T20:29:01;6.80;;;2.70;;
40815;SDS011;26535;48.788;9.214;2022-09-28T20:31:31;6.85;;;2.45;;
40815;SDS011;26535;48.788;9.214;2022-09-28T20:34:00;5.15;;;2.35;;
40815;SDS011;26535;48.788;9.214;2022-09-28T20:36:27;5.03;;;2.30;;
40815;SDS011;26535;48.788;9.214;2022-09-28T20:38:56;8.13;;;2.28;;
40815;SDS011;26535;48.788;9.214;2022-09-28T20:41:25;6.68;;;2.38;;
40815;SDS011;26535;48.788;9.214;2022-09-28T20:43:52;4.75;;;2.35;;
40815;SDS011;26535;48.788;9.214;2022-09-28T20:46:19;5.20;;;2.47;;
40815;SDS011;26535;48.788;9.214;2022-09-28T20:48:46;3.72;;;2.00;;
40815;SDS011;26535;48.788;9.214;2022-09-28T20:51:14;6.57;;;2.08;;
40815;SDS011;26535;48.788;9.214;2022-09-28T20:53:42;5.70;;;2.00;;
40815;SDS011;26535;48.788;9.214;2022-09-28T20:56:19;5.40;;;2.35;;
40815;SDS011;26535;48.788;9.214;2022-09-28T20:58:46;4.95;;;2.05;;
40815;SDS011;26535;48.788;9.214;2022-09-28T21:01:22;3.85;;;1.95;;
40815;SDS011;26535;48.788;9.214;2022-09-28T21:03:56;4.72;;;2.10;;
40815;SDS011;26535;48.788;9.214;2022-09-28T21:06:24;4.68;;;2.60;;
40815;SDS011;26535;48.788;9.214;2022-09-28T21:08:51;8.27;;;2.72;;
40815;SDS011;26535;48.788;9.214;2022-09-28T21:11:17;5.82;;;2.20;;
40815;SDS011;26535;48.788;9.214;2022-09-28T21:13:45;5.63;;;2.20;;
40815;SDS011;26535;48.788;9.214;2022-09-28T21:16:15;5.82;;;2.17;;
40815;SDS011;26535;48.788;9.214;2022-09-28T21:18:42;5.88;;;2.17;;
40815;SDS011;26535;48.788;9.214;2022-09-28T21:21:09;5.00;;;2.47;;
40815;SDS011;26535;48.788;9.214;2022-09-28T21:23:37;6.13;;;2.65;;
40815;SDS011;26535;48.788;9.214;2022-09-28T21:26:04;5.80;;;3.05;;
40815;SDS011;26535;48.788;9.214;2022-09-28T21:28:31;4.47;;;2.53;;
40815;SDS011;26535;48.788;9.214;2022-09-28T21:30:58;6.22;;;2.75;;
40815;SDS011;26535;48.788;9.214;2022-09-28T21:33:24;6.03;;;2.15;;
40815;SDS011;26535;48.788;9.214;2022-09-28T21:35:50;5.28;;;2.28;;
40815;SDS011;26535;48.788;9.214;2022-09-28T21:38:15;7.22;;;2.30;;
40815;SDS011;26535;48.788;9.214;2022-09-28T21:40:41;3.70;;;2.05;;
40815;SDS011;26535;48.788;9.214;2022-09-28T21:43:07;6.43;;;2.28;;
40815;SDS011;26535;48.788;9.214;2022-09-28T21:45:32;4.38;;;1.98;;
40815;SDS011;26535;48.788;9.214;2022-09-28T21:47:58;5.80;;;2.42;;
40815;SDS011;26535;48.788;9.214;2022-09-28T21:50:24;5.05;;;2.08;;
40815;SDS011;26535;48.788;9.214;2022-09-28T21:52:51;6.20;;;2.65;;
40815;SDS011;26535;48.788;9.214;2022-09-28T21:55:22;5.88;;;2.42;;
40815;SDS011;26535;48.788;9.214;2022-09-28T21:57:48;5.22;;;2.20;;
40815;SDS011;26535;48.788;9.214;2022-09-28T22:00:16;6.18;;;2.58;;
40815;SDS011;26535;48.788;9.214;2022-09-28T22:02:43;6.07;;;2.55;;
40815;SDS011;26535;48.788;9.214;2022-09-28T22:05:09;6.25;;;2.35;;
40815;SDS011;26535;48.788;9.214;2022-09-28T22:07:40;7.03;;;2.35;;
40815;SDS011;26535;48.788;9.214;2022-09-28T22:10:07;7.70;;;2.85;;
40815;SDS011;26535;48.788;9.214;2022-09-28T22:12:36;5.10;;;2.70;;
40815;SDS011;26535;48.788;9.214;2022-09-28T22:15:02;8.73;;;5.05;;
40815;SDS011;26535;48.788;9.214;2022-09-28T22:17:29;15.18;;;9.90;;
40815;SDS011;26535;48.788;9.214;2022-09-28T22:19:55;7.60;;;4.30;;
40815;SDS011;26535;48.788;9.214;2022-09-28T22:22:21;8.43;;;3.90;;
40815;SDS011;26535;48.788;9.214;2022-09-28T22:24:47;8.45;;;4.75;;
40815;SDS011;26535;48.788;9.214;2022-09-28T22:27:13;7.47;;;4.60;;
40815;SDS011;26535;48.788;9.214;2022-09-28T22:29:39;8.73;;;5.40;;
40815;SDS011;26535;48.788;9.214;2022-09-28T22:32:06;18.83;;;12.07;;
40815;SDS011;26535;48.788;9.214;2022-09-28T22:34:32;16.52;;;9.88;;
40815;SDS011;26535;48.788;9.214;2022-09-28T22:36:58;9.63;;;5.65;;
40815;SDS011;26535;48.788;9.214;2022-09-28T22:39:27;9.80;;;3.22;;
40815;SDS011;26535;48.788;9.214;2022-09-28T22:41:53;6.63;;;3.00;;
40815;SDS011;26535;48.788;9.214;2022-09-28T22:44:19;7.32;;;3.22;;
40815;SDS011;26535;48.788;9.214;2022-09-28T22:46:45;8.82;;;3.67;;
40815;SDS011;26535;48.788;9.214;2022-09-28T22:49:10;6.90;;;3.40;;
40815;SDS011;26535;48.788;9.214;2022-09-28T22:51:37;6.57;;;3.22;;
40815;SDS011;26535;48.788;9.214;2022-09-28T22:54:03;9.05;;;3.33;;
40815;SDS011;26535;48.788;9.214;2022-09-28T22:56:32;9.32;;;3.67;;
40815;SDS011;26535;48.788;9.214;2022-09-28T22:58:57;8.57;;;3.58;;
